Athensville, Illinois
Current Conditions -  °F | °C
As of 6:15 PM on Friday 21 Nov 2014 (Local Time) from KIJX Reporting Station
Overcast Overcast  
Wind Chill: 32°   Ceiling: 2200
Heat Index: 39°   Visibility: 10mi
Dew Point: 19°   Wind: 9mph
Humidity: 46%   Direction: 140°SE
Pressure: 30.27"   Gusts: NA
Location:  39.491°N, 90.2996°W
Report Text: KIJX 220015Z AUTO 14008KT 10SM BKN022 BKN031 OVC037 04/M07 A3027 RMK AO2 T00371071
Loading
Personal Weather Stations






























Interactive Weather Map New forecast layout! Learn more

10-Day Weather Forecast

Advertisements
Track Severe Weather on mobile